Time;durP1;ratioP1;P1;durP2;ratioP2;P2;SDS_P1;SDS_P2;PMS_P1;PMS_P2;Temp;Humidity;BMP_temperature;BMP_pressure;BME280_temperature;BME280_humidity;BME280_pressure;Samples;Min_cycle;Max_cycle;Signal;HPM_P1;HPM_P2
2023/05/16 00:01:45;;;;;;;14.65;5.15;;;11.70;99.90;;;;;;5109461;28;20054;-61
2023/05/16 00:04:11;;;;;;;12.63;5.03;;;11.60;99.90;;;;;;5111249;28;20019;-61
2023/05/16 00:06:36;;;;;;;9.07;4.57;;;11.60;99.90;;;;;;5109135;28;20023;-60
2023/05/16 00:09:02;;;;;;;11.93;4.95;;;11.50;99.90;;;;;;5107829;28;20031;-60
2023/05/16 00:11:28;;;;;;;10.98;4.82;;;11.50;99.90;;;;;;5107375;28;20016;-58
2023/05/16 00:13:53;;;;;;;14.80;6.00;;;11.50;99.90;;;;;;5108773;28;20370;-61
2023/05/16 00:16:20;;;;;;;15.57;6.30;;;11.50;99.90;;;;;;5109015;28;20474;-55
2023/05/16 00:18:47;;;;;;;10.18;5.25;;;11.50;99.90;;;;;;5109836;28;20031;-57
2023/05/16 00:21:12;;;;;;;14.35;5.88;;;11.40;99.90;;;;;;5106710;28;20322;-60
2023/05/16 00:23:38;;;;;;;16.95;7.55;;;11.40;99.90;;;;;;5108887;28;20024;-57
2023/05/16 00:26:04;;;;;;;21.77;8.05;;;11.40;99.90;;;;;;5106466;28;20016;-61
2023/05/16 00:28:29;;;;;;;19.27;8.48;;;11.40;99.90;;;;;;5109792;28;20486;-61
2023/05/16 00:30:55;;;;;;;16.88;8.63;;;11.40;99.90;;;;;;5110022;28;20113;-61
2023/05/16 00:33:20;;;;;;;28.00;11.25;;;11.40;99.90;;;;;;5110391;28;20397;-58
2023/05/16 00:35:46;;;;;;;21.95;10.23;;;11.40;99.90;;;;;;5109038;28;20028;-60
2023/05/16 00:38:11;;;;;;;24.13;9.98;;;11.30;99.90;;;;;;5108003;28;20031;-57
2023/05/16 00:40:37;;;;;;;24.80;10.25;;;11.30;99.90;;;;;;5106071;28;20171;-58
2023/05/16 00:43:03;;;;;;;24.27;9.13;;;11.30;99.90;;;;;;5109501;28;20020;-60
2023/05/16 00:45:28;;;;;;;22.88;9.32;;;11.20;99.90;;;;;;5108915;28;20127;-61
2023/05/16 00:47:54;;;;;;;17.60;8.82;;;11.20;99.90;;;;;;5101129;28;20086;-61
2023/05/16 00:50:20;;;;;;;17.40;8.43;;;11.20;99.90;;;;;;5107163;28;20107;-61
2023/05/16 00:52:45;;;;;;;15.30;7.38;;;11.20;99.90;;;;;;5103249;28;20074;-60
2023/05/16 00:55:12;;;;;;;18.27;9.05;;;11.20;99.90;;;;;;5107436;28;20024;-60
2023/05/16 00:57:38;;;;;;;14.50;7.47;;;11.20;99.90;;;;;;5108298;28;20080;-57
2023/05/16 01:00:09;;;;;;;21.50;8.68;;;11.10;99.90;;;;;;5106209;28;20386;-60
2023/05/16 01:02:36;;;;;;;16.35;8.20;;;11.10;99.90;;;;;;5108412;28;20036;-59
2023/05/16 01:05:04;;;;;;;16.25;8.52;;;11.10;99.90;;;;;;5108790;28;20126;-60
2023/05/16 01:07:30;;;;;;;17.08;8.63;;;11.00;99.90;;;;;;5108805;28;20042;-61
2023/05/16 01:09:56;;;;;;;15.38;8.57;;;11.00;99.90;;;;;;5106630;28;20024;-59
2023/05/16 01:12:33;;;;;;;16.45;8.15;;;11.00;99.90;;;;;;5107967;28;20040;-62
2023/05/16 01:15:09;;;;;;;19.90;8.73;;;11.00;99.90;;;;;;5107129;28;20122;-58
2023/05/16 01:18:01;;;;;;;17.35;7.32;;;11.00;99.90;;;;;;5106408;28;20051;-58
2023/05/16 01:20:32;;;;;;;14.85;8.27;;;11.00;99.90;;;;;;5106428;28;20110;-58
2023/05/16 01:23:16;;;;;;;20.60;8.80;;;10.90;99.90;;;;;;5106640;28;20032;-62
2023/05/16 01:26:08;;;;;;;19.75;8.38;;;10.90;99.90;;;;;;5111517;28;20282;-61
2023/05/16 01:28:35;;;;;;;19.42;9.15;;;10.90;99.90;;;;;;5112421;28;20035;-61
2023/05/16 01:31:00;;;;;;;12.20;7.30;;;10.90;99.90;;;;;;5107995;28;20497;-62
2023/05/16 01:33:26;;;;;;;13.13;6.80;;;10.80;99.90;;;;;;5108544;28;20055;-58
2023/05/16 01:36:21;;;;;;;14.35;6.90;;;10.80;99.90;;;;;;5106527;28;20035;-61
2023/05/16 01:39:02;;;;;;;;;;;10.70;99.90;;;;;;5101462;28;20043;-62
2023/05/16 01:41:40;;;;;;;24.75;11.60;;;10.70;99.90;;;;;;5109865;28;19960;-60
2023/05/16 01:44:11;;;;;;;24.42;11.50;;;10.50;99.90;;;;;;5106470;28;20102;-60
2023/05/16 01:46:41;;;;;;;26.05;12.60;;;10.50;99.90;;;;;;5109394;28;20024;-60
2023/05/16 01:49:25;;;;;;;24.25;12.93;;;10.40;99.90;;;;;;5110533;28;20020;-62
2023/05/16 01:51:57;;;;;;;34.27;12.73;;;10.30;99.90;;;;;;5106783;28;20031;-59
2023/05/16 01:54:25;;;;;;;25.58;12.38;;;10.40;99.90;;;;;;5110033;28;20103;-61
2023/05/16 01:56:53;;;;;;;28.65;12.43;;;10.30;99.90;;;;;;5105366;28;20543;-62
2023/05/16 01:59:21;;;;;;;33.92;13.23;;;10.30;99.90;;;;;;5107058;28;20338;-59
2023/05/16 02:01:46;;;;;;;30.45;13.07;;;10.20;99.90;;;;;;5109430;28;20026;-62
2023/05/16 02:04:14;;;;;;;27.02;11.98;;;10.20;99.90;;;;;;5108145;28;20102;-61
2023/05/16 02:06:43;;;;;;;25.58;10.98;;;10.20;99.90;;;;;;5107285;28;20103;-60
2023/05/16 02:09:08;;;;;;;29.25;11.63;;;10.20;99.90;;;;;;5108542;28;20028;-60
2023/05/16 02:11:34;;;;;;;20.98;9.95;;;10.10;99.90;;;;;;5105604;28;20034;-59
2023/05/16 02:13:59;;;;;;;24.70;11.40;;;10.10;99.90;;;;;;5110031;28;20023;-58
2023/05/16 02:16:25;;;;;;;28.50;10.38;;;10.10;99.90;;;;;;5104326;28;20091;-59
2023/05/16 02:18:50;;;;;;;22.40;9.80;;;10.10;99.90;;;;;;5104345;28;20077;-59
2023/05/16 02:21:16;;;;;;;18.55;8.32;;;10.00;99.90;;;;;;5100223;28;20028;-60
2023/05/16 02:23:42;;;;;;;17.33;8.15;;;10.00;99.90;;;;;;5108668;28;20370;-62
2023/05/16 02:26:07;;;;;;;24.40;7.70;;;10.00;99.90;;;;;;5109901;28;20019;-61
2023/05/16 02:28:33;;;;;;;16.95;8.88;;;9.90;99.90;;;;;;5107442;28;20060;-61
2023/05/16 02:30:59;;;;;;;21.38;9.82;;;9.90;99.90;;;;;;5107517;28;20047;-58
2023/05/16 02:33:26;;;;;;;23.55;10.23;;;9.90;99.90;;;;;;5107221;28;20027;-59
2023/05/16 02:35:52;;;;;;;25.23;9.50;;;9.90;99.90;;;;;;5098082;28;20405;-58
2023/05/16 02:38:19;;;;;;;27.95;10.88;;;9.80;99.90;;;;;;5103357;28;20047;-61
2023/05/16 02:40:48;;;;;;;27.10;10.50;;;9.70;99.90;;;;;;5101895;28;20023;-61
2023/05/16 02:43:14;;;;;;;29.25;10.73;;;9.70;99.90;;;;;;5108941;28;20433;-60
2023/05/16 02:45:40;;;;;;;24.73;10.80;;;9.60;99.90;;;;;;5101595;28;20111;-59
2023/05/16 02:48:06;;;;;;;21.20;9.73;;;9.60;99.90;;;;;;5099420;28;20020;-61
2023/05/16 02:50:36;;;;;;;33.45;9.80;;;9.60;99.90;;;;;;5106044;28;20107;-59
2023/05/16 02:53:01;;;;;;;27.17;8.73;;;9.50;99.90;;;;;;5103478;28;20573;-58
2023/05/16 02:55:28;;;;;;;22.13;8.77;;;9.40;99.90;;;;;;5107671;28;20031;-60
2023/05/16 02:57:54;;;;;;;33.65;10.15;;;9.40;99.90;;;;;;5108353;28;20110;-58
2023/05/16 03:00:19;;;;;;;28.20;9.80;;;9.40;99.90;;;;;;5109176;28;20469;-62
2023/05/16 03:02:45;;;;;;;26.63;10.55;;;9.40;99.90;;;;;;5106745;28;20038;-57
2023/05/16 03:05:11;;;;;;;30.15;11.80;;;9.40;99.90;;;;;;5101560;28;20762;-60
2023/05/16 03:07:38;;;;;;;32.90;11.63;;;9.30;99.90;;;;;;5100090;28;20020;-60
2023/05/16 03:10:04;;;;;;;36.25;14.50;;;9.30;99.90;;;;;;5103813;28;20105;-58
2023/05/16 03:12:29;;;;;;;34.22;14.40;;;9.30;99.90;;;;;;5109635;28;20129;-60
2023/05/16 03:14:55;;;;;;;49.42;14.77;;;9.30;99.90;;;;;;5103551;28;20497;-59
2023/05/16 03:17:20;;;;;;;39.17;14.55;;;9.40;99.90;;;;;;5104013;28;20058;-57
2023/05/16 03:19:46;;;;;;;43.72;15.48;;;9.40;99.90;;;;;;5105991;28;20050;-55
2023/05/16 03:22:12;;;;;;;45.38;15.73;;;9.40;99.90;;;;;;5107652;28;20156;-59
2023/05/16 03:24:37;;;;;;;44.45;17.63;;;9.40;99.90;;;;;;5107295;28;20019;-60
2023/05/16 03:27:03;;;;;;;45.53;16.30;;;9.40;99.90;;;;;;5104097;28;20028;-62
2023/05/16 03:29:29;;;;;;;49.92;16.58;;;9.40;99.90;;;;;;5105200;28;20442;-63
2023/05/16 03:31:55;;;;;;;51.65;19.05;;;9.40;99.90;;;;;;5106026;28;20024;-60
2023/05/16 03:34:21;;;;;;;45.17;18.75;;;9.40;99.90;;;;;;5109030;28;20092;-60
2023/05/16 03:36:50;;;;;;;61.28;16.27;;;9.40;99.90;;;;;;5102082;28;20050;-62
2023/05/16 03:39:16;;;;;;;45.13;16.27;;;9.40;99.90;;;;;;5103193;28;20898;-62
2023/05/16 03:41:42;;;;;;;37.03;10.77;;;9.50;99.90;;;;;;5104944;28;20050;-62
2023/05/16 03:44:07;;;;;;;31.70;10.13;;;9.40;99.90;;;;;;5106929;28;20038;-59
2023/05/16 03:46:34;;;;;;;45.03;11.02;;;9.40;99.90;;;;;;5104735;28;20032;-59
2023/05/16 03:49:00;;;;;;;29.33;11.02;;;9.40;99.90;;;;;;5101411;28;20654;-62
2023/05/16 03:51:25;;;;;;;33.17;10.65;;;9.40;99.90;;;;;;5105206;28;20031;-61
2023/05/16 03:53:51;;;;;;;26.55;9.40;;;9.40;99.90;;;;;;5104562;28;20512;-60
2023/05/16 03:56:17;;;;;;;34.95;9.95;;;9.40;99.90;;;;;;5107308;28;20123;-60
2023/05/16 03:58:42;;;;;;;25.45;8.40;;;9.30;99.90;;;;;;5106409;28;20031;-59
2023/05/16 04:01:08;;;;;;;35.70;9.38;;;9.30;99.90;;;;;;5105264;28;20027;-60
2023/05/16 04:03:33;;;;;;;37.75;9.80;;;9.30;99.90;;;;;;5104164;28;20038;-61
2023/05/16 04:05:59;;;;;;;35.90;8.98;;;9.30;99.90;;;;;;5104702;28;20028;-61
2023/05/16 04:08:25;;;;;;;34.35;9.57;;;9.20;99.90;;;;;;5105966;28;20016;-61
2023/05/16 04:10:50;;;;;;;28.00;9.23;;;9.20;99.90;;;;;;5108705;28;20027;-62
2023/05/16 04:13:16;;;;;;;45.10;10.35;;;9.20;99.90;;;;;;5107506;28;20030;-55
2023/05/16 04:15:42;;;;;;;33.60;9.95;;;9.20;99.90;;;;;;5105372;28;20081;-62
2023/05/16 04:18:08;;;;;;;35.55;8.68;;;9.20;99.90;;;;;;5105507;28;20032;-56
2023/05/16 04:20:35;;;;;;;34.42;8.88;;;9.20;99.90;;;;;;5102626;28;20031;-62
2023/05/16 04:23:00;;;;;;;32.85;9.13;;;9.20;99.90;;;;;;5102946;28;20026;-61
2023/05/16 04:25:26;;;;;;;23.50;9.98;;;9.20;99.90;;;;;;5104569;28;20039;-63
2023/05/16 04:27:52;;;;;;;45.83;10.10;;;9.20;99.90;;;;;;5106154;28;20032;-60
2023/05/16 04:30:18;;;;;;;46.97;9.98;;;9.20;99.90;;;;;;5105091;28;20543;-62
2023/05/16 04:32:43;;;;;;;34.78;11.05;;;9.20;99.90;;;;;;5105586;28;20122;-61
2023/05/16 04:35:09;;;;;;;33.97;11.80;;;9.20;99.90;;;;;;5106416;28;20111;-62
2023/05/16 04:37:35;;;;;;;40.72;9.88;;;9.20;99.90;;;;;;5109169;28;20035;-59
2023/05/16 04:40:01;;;;;;;28.83;10.45;;;9.20;99.90;;;;;;5103250;28;20114;-60
2023/05/16 04:42:26;;;;;;;38.63;10.80;;;9.10;99.90;;;;;;5105127;28;20036;-61
2023/05/16 04:44:52;;;;;;;32.53;9.68;;;9.10;99.90;;;;;;5108778;28;20036;-60
2023/05/16 04:47:17;;;;;;;33.10;8.57;;;9.00;99.90;;;;;;5103852;28;20028;-63
2023/05/16 04:49:43;;;;;;;31.40;7.82;;;9.00;99.90;;;;;;5105025;28;20027;-61
2023/05/16 04:52:09;;;;;;;25.83;6.95;;;9.00;99.90;;;;;;5103914;28;20035;-61
2023/05/16 04:54:36;;;;;;;25.40;6.93;;;8.90;99.90;;;;;;5105635;28;20051;-61
2023/05/16 04:57:02;;;;;;;28.13;5.00;;;8.90;99.90;;;;;;5103341;28;20156;-63
2023/05/16 04:59:27;;;;;;;21.23;4.65;;;8.80;99.90;;;;;;5109033;28;20113;-60
2023/05/16 05:01:53;;;;;;;25.25;5.03;;;8.80;99.90;;;;;;5102326;28;20034;-59
2023/05/16 05:04:18;;;;;;;30.00;3.65;;;8.70;99.90;;;;;;5105240;28;20047;-62
2023/05/16 05:06:44;;;;;;;28.95;3.67;;;8.70;99.90;;;;;;5107738;27;20032;-61
2023/05/16 05:09:10;;;;;;;18.10;3.30;;;8.70;99.90;;;;;;5111396;28;20043;-60
2023/05/16 05:11:35;;;;;;;16.55;3.38;;;8.60;99.90;;;;;;5110712;28;20031;-62
2023/05/16 05:14:01;;;;;;;18.83;3.03;;;8.70;99.90;;;;;;5111705;28;20030;-62
2023/05/16 05:16:27;;;;;;;15.35;2.83;;;8.60;99.90;;;;;;5109845;27;20032;-60
2023/05/16 05:18:52;;;;;;;18.10;3.30;;;8.70;99.90;;;;;;5109883;28;20590;-61
2023/05/16 05:21:19;;;;;;;20.90;4.70;;;8.70;99.90;;;;;;5107043;28;20038;-63
2023/05/16 05:23:45;;;;;;;14.90;3.35;;;8.70;99.90;;;;;;5110672;28;20028;-61
2023/05/16 05:26:10;;;;;;;26.20;4.70;;;8.70;99.90;;;;;;5111092;28;20389;-62
2023/05/16 05:28:36;;;;;;;28.42;4.53;;;8.80;99.90;;;;;;5109848;28;20028;-63
2023/05/16 05:31:04;;;;;;;32.10;4.97;;;8.80;99.90;;;;;;5108248;28;20020;-61
2023/05/16 05:33:30;;;;;;;23.65;5.05;;;8.90;99.90;;;;;;5104644;28;20020;-63
2023/05/16 05:35:56;;;;;;;26.70;4.93;;;8.90;99.90;;;;;;5111169;27;20023;-61
2023/05/16 05:38:22;;;;;;;25.45;4.40;;;8.90;99.90;;;;;;5107843;28;20114;-62
2023/05/16 05:40:48;;;;;;;12.32;3.28;;;9.00;99.90;;;;;;5110072;28;20103;-60
2023/05/16 05:43:14;;;;;;;20.35;3.80;;;9.00;99.90;;;;;;5107166;28;20035;-61
2023/05/16 05:45:40;;;;;;;29.15;3.78;;;9.00;99.90;;;;;;5107299;28;20046;-62
2023/05/16 05:48:06;;;;;;;20.30;4.20;;;9.10;99.90;;;;;;5110407;28;20020;-63
2023/05/16 05:50:31;;;;;;;27.70;3.70;;;9.10;99.90;;;;;;5108072;28;20501;-63
2023/05/16 05:52:57;;;;;;;24.25;3.08;;;9.10;99.90;;;;;;5107968;28;20039;-61
2023/05/16 05:55:22;;;;;;;14.88;2.70;;;9.20;99.90;;;;;;5106038;28;20217;-61
2023/05/16 05:57:48;;;;;;;27.67;4.55;;;9.20;99.90;;;;;;5109562;28;20024;-61
2023/05/16 06:00:14;;;;;;;14.43;2.72;;;9.30;99.90;;;;;;5104693;28;20032;-63
2023/05/16 06:02:39;;;;;;;4.63;2.00;;;9.30;99.90;;;;;;5102884;28;20509;-61
2023/05/16 06:05:05;;;;;;;11.75;2.28;;;9.40;99.90;;;;;;5101151;28;20031;-62
2023/05/16 06:07:31;;;;;;;12.32;2.25;;;9.50;99.90;;;;;;5105489;27;20712;-61
2023/05/16 06:09:56;;;;;;;10.40;1.85;;;9.60;99.90;;;;;;5103792;28;20057;-62
2023/05/16 06:12:22;;;;;;;8.15;2.80;;;9.70;99.90;;;;;;5107579;28;20027;-62
2023/05/16 06:14:47;;;;;;;14.85;2.88;;;9.70;99.90;;;;;;5105831;28;20040;-60
2023/05/16 06:17:13;;;;;;;17.60;2.47;;;9.70;99.90;;;;;;5104001;28;20040;-61
2023/05/16 06:19:38;;;;;;;13.20;2.72;;;9.70;99.90;;;;;;5108756;28;20031;-61
2023/05/16 06:22:04;;;;;;;16.70;2.35;;;9.80;99.90;;;;;;5102456;28;20614;-60
2023/05/16 06:24:30;;;;;;;12.70;2.22;;;9.80;99.90;;;;;;5105397;28;20486;-61
2023/05/16 06:26:55;;;;;;;20.35;1.85;;;9.80;99.90;;;;;;5104801;28;20024;-61
2023/05/16 06:29:21;;;;;;;18.50;1.65;;;9.80;99.90;;;;;;5106927;28;20114;-61
2023/05/16 06:31:47;;;;;;;11.90;1.70;;;9.80;99.90;;;;;;5109015;28;20058;-61
2023/05/16 06:34:13;;;;;;;12.65;2.08;;;9.80;99.90;;;;;;5103700;28;20073;-61
2023/05/16 06:36:38;;;;;;;7.00;1.38;;;9.80;99.90;;;;;;5105303;28;20016;-61
2023/05/16 06:39:04;;;;;;;13.05;1.67;;;9.90;99.90;;;;;;5109174;27;20094;-60
2023/05/16 06:41:29;;;;;;;8.65;2.33;;;9.90;99.90;;;;;;5103519;28;20020;-60
2023/05/16 06:43:55;;;;;;;18.00;1.85;;;9.90;99.90;;;;;;5104425;28;20027;-61
2023/05/16 06:46:21;;;;;;;15.05;2.03;;;10.00;99.90;;;;;;5107740;28;20020;-60
2023/05/16 06:48:46;;;;;;;9.70;1.33;;;10.10;99.90;;;;;;5110726;28;20397;-61
2023/05/16 06:51:12;;;;;;;14.52;2.33;;;10.20;99.90;;;;;;5106699;28;20390;-62
2023/05/16 06:53:38;;;;;;;16.85;1.55;;;10.30;99.90;;;;;;5108006;28;20034;-62
2023/05/16 06:56:03;;;;;;;11.80;2.20;;;10.20;99.90;;;;;;5106239;28;20404;-62
2023/05/16 06:58:29;;;;;;;21.23;2.20;;;10.30;99.90;;;;;;5107034;28;20030;-64
2023/05/16 07:00:54;;;;;;;16.42;1.65;;;10.40;99.90;;;;;;5100998;28;20023;-62
2023/05/16 07:03:20;;;;;;;11.98;1.95;;;10.40;99.90;;;;;;5106414;28;20041;-61
2023/05/16 07:05:46;;;;;;;13.27;2.03;;;10.50;99.90;;;;;;5104640;28;20038;-62
2023/05/16 07:08:11;;;;;;;13.07;1.67;;;10.70;99.90;;;;;;5104230;28;20034;-62
2023/05/16 07:10:38;;;;;;;8.02;1.73;;;10.70;99.90;;;;;;5104894;28;20026;-64
2023/05/16 07:13:04;;;;;;;16.45;1.80;;;10.90;99.90;;;;;;5105402;28;20035;-62
2023/05/16 07:15:30;;;;;;;12.55;1.67;;;11.00;99.90;;;;;;5108308;28;20023;-62
2023/05/16 07:17:56;;;;;;;18.90;2.10;;;11.10;99.90;;;;;;5108647;28;20072;-58
2023/05/16 07:20:21;;;;;;;16.33;2.58;;;11.00;99.90;;;;;;5105726;28;20032;-61
2023/05/16 07:22:47;;;;;;;16.98;1.80;;;11.10;99.90;;;;;;5103043;28;20500;-61
2023/05/16 07:25:14;;;;;;;10.70;1.30;;;11.10;99.90;;;;;;5107497;28;20024;-62
2023/05/16 07:27:43;;;;;;;17.60;2.67;;;11.20;99.90;;;;;;5105007;28;20102;-60
2023/05/16 07:30:11;;;;;;;14.52;1.65;;;11.20;99.90;;;;;;5102986;28;20020;-61
2023/05/16 07:32:37;;;;;;;12.25;1.42;;;11.30;99.90;;;;;;5103733;28;20616;-62
2023/05/16 07:35:03;;;;;;;12.68;2.95;;;11.40;99.90;;;;;;5103156;28;20092;-59
2023/05/16 07:37:29;;;;;;;22.13;2.75;;;11.40;99.90;;;;;;5104409;28;20621;-61
2023/05/16 07:39:55;;;;;;;10.30;1.83;;;11.40;99.90;;;;;;5099712;28;20501;-56
2023/05/16 07:42:20;;;;;;;15.07;3.25;;;11.40;99.90;;;;;;5102581;28;20032;-58
2023/05/16 07:44:46;;;;;;;20.98;3.15;;;11.30;99.90;;;;;;5096967;28;20497;-59
2023/05/16 07:47:12;;;;;;;23.67;3.63;;;11.00;99.90;;;;;;5106493;28;20042;-60
2023/05/16 07:49:37;;;;;;;13.63;3.50;;;10.90;99.90;;;;;;5104495;28;21213;-59
2023/05/16 07:52:03;;;;;;;11.27;2.85;;;10.90;99.90;;;;;;5098200;28;20032;-57
2023/05/16 07:54:32;;;;;;;20.70;4.03;;;10.90;99.90;;;;;;5102035;28;20366;-59
2023/05/16 07:56:57;;;;;;;20.75;3.47;;;10.80;99.90;;;;;;5101625;28;20168;-59
2023/05/16 07:59:23;;;;;;;23.40;4.05;;;10.80;99.90;;;;;;5105859;28;20103;-58
2023/05/16 08:01:49;;;;;;;12.93;4.30;;;10.80;99.90;;;;;;5101005;28;20018;-55
2023/05/16 08:04:14;;;;;;;11.95;3.60;;;10.80;99.90;;;;;;5104145;28;20028;-57
2023/05/16 08:06:40;;;;;;;23.38;4.97;;;10.80;99.90;;;;;;5103030;28;20024;-59
2023/05/16 08:09:05;;;;;;;19.30;4.40;;;10.70;99.90;;;;;;5105770;28;20032;-60
2023/05/16 08:11:31;;;;;;;10.40;3.30;;;10.70;99.90;;;;;;5102647;28;20035;-60
2023/05/16 08:13:56;;;;;;;21.60;4.40;;;10.80;99.90;;;;;;5101886;28;20023;-56
2023/05/16 08:16:22;;;;;;;14.93;3.75;;;10.70;99.90;;;;;;5104872;28;20047;-59
2023/05/16 08:18:47;;;;;;;19.50;3.67;;;10.70;99.90;;;;;;5101713;28;20032;-60
2023/05/16 08:21:13;;;;;;;20.80;3.58;;;10.80;99.90;;;;;;5103769;28;20050;-60
2023/05/16 08:23:39;;;;;;;16.73;3.17;;;10.80;99.90;;;;;;5106994;28;20031;-59
2023/05/16 08:26:05;;;;;;;12.15;3.50;;;10.80;99.90;;;;;;5102211;28;20493;-56
2023/05/16 08:28:31;;;;;;;17.63;3.67;;;10.90;99.90;;;;;;5105315;28;20035;-58
2023/05/16 08:30:56;;;;;;;11.00;4.30;;;11.00;99.90;;;;;;5098822;28;20024;-58
2023/05/16 08:33:21;;;;;;;16.75;4.32;;;10.90;99.90;;;;;;5103049;28;21231;-58
2023/05/16 08:35:51;;;;;;;17.98;3.78;;;10.90;99.90;;;;;;5108394;28;20020;-60
2023/05/16 08:38:17;;;;;;;20.48;4.63;;;11.00;99.90;;;;;;5110743;28;20047;-56
2023/05/16 08:40:43;;;;;;;10.75;3.75;;;11.10;99.90;;;;;;5112162;28;20059;-60
2023/05/16 08:43:08;;;;;;;14.13;4.28;;;11.30;99.90;;;;;;5105081;28;20549;-58
2023/05/16 08:45:34;;;;;;;18.75;4.95;;;11.30;99.90;;;;;;5110668;28;20055;-52
2023/05/16 08:48:01;;;;;;;15.20;3.58;;;11.20;99.90;;;;;;5107785;28;20016;-61
2023/05/16 08:50:31;;;;;;;13.18;3.10;;;11.20;99.90;;;;;;5110452;27;20366;-60
2023/05/16 08:52:56;;;;;;;8.68;2.50;;;11.20;99.90;;;;;;5112195;28;20046;-54
2023/05/16 08:55:25;;;;;;;12.40;2.90;;;11.30;99.90;;;;;;5107619;28;20067;-59
2023/05/16 08:57:51;;;;;;;11.85;2.15;;;11.50;99.90;;;;;;5110447;28;20031;-59
2023/05/16 09:00:18;;;;;;;9.18;2.45;;;11.70;99.90;;;;;;5109998;28;20031;-57
2023/05/16 09:02:44;;;;;;;9.05;2.22;;;11.70;99.90;;;;;;5110571;28;20042;-55
2023/05/16 09:05:12;;;;;;;14.77;2.60;;;11.70;99.90;;;;;;5111217;28;20091;-59
2023/05/16 09:07:39;;;;;;;9.88;2.35;;;11.60;99.90;;;;;;5106779;28;20020;-56
2023/05/16 09:10:06;;;;;;;5.63;1.88;;;11.80;99.90;;;;;;5106063;28;20026;-59
2023/05/16 09:12:32;;;;;;;6.80;1.50;;;12.00;99.90;;;;;;5106772;28;20549;-58
2023/05/16 09:15:01;;;;;;;12.82;1.70;;;12.30;99.90;;;;;;5104498;28;20020;-58
2023/05/16 09:17:40;;;;;;;10.00;3.03;;;12.50;99.90;;;;;;5107091;28;20065;-61
2023/05/16 09:20:13;;;;;;;8.48;2.03;;;12.50;99.90;;;;;;5108879;28;20027;-60
2023/05/16 09:22:39;;;;;;;8.68;1.70;;;12.60;99.90;;;;;;5106338;28;20089;-59
2023/05/16 09:25:06;;;;;;;9.43;1.65;;;12.80;99.90;;;;;;5102655;28;20434;-58
2023/05/16 09:27:32;;;;;;;13.73;2.22;;;12.90;99.90;;;;;;5107924;27;20118;-58
2023/05/16 09:29:58;;;;;;;9.65;2.20;;;12.70;99.90;;;;;;5106923;28;20405;-59
2023/05/16 09:32:24;;;;;;;14.63;2.03;;;12.60;99.90;;;;;;5101877;28;20016;-61
2023/05/16 09:34:53;;;;;;;7.22;1.65;;;12.50;99.90;;;;;;5100638;28;20015;-60
2023/05/16 09:37:19;;;;;;;10.32;1.63;;;12.40;99.90;;;;;;5105955;27;20024;-59
2023/05/16 09:39:49;;;;;;;4.13;1.30;;;12.30;99.90;;;;;;5102385;28;20084;-56
2023/05/16 09:42:16;;;;;;;11.52;1.48;;;12.30;99.90;;;;;;5108854;28;20038;-57
2023/05/16 09:44:50;;;;;;;8.85;1.48;;;12.40;99.90;;;;;;5104049;28;20027;-58
2023/05/16 09:47:19;;;;;;;4.55;1.30;;;12.40;99.90;;;;;;5106726;28;20023;-54
2023/05/16 09:49:46;;;;;;;9.63;1.85;;;12.30;99.90;;;;;;5106670;28;20027;-58
2023/05/16 09:52:12;;;;;;;10.80;1.80;;;12.40;99.90;;;;;;5106737;28;20027;-58
2023/05/16 09:54:38;;;;;;;14.32;1.63;;;12.70;99.90;;;;;;5107349;28;20107;-57
2023/05/16 09:57:04;;;;;;;6.22;1.60;;;12.90;99.90;;;;;;5109640;28;20107;-57
2023/05/16 09:59:34;;;;;;;10.82;4.30;;;12.90;99.90;;;;;;5107546;28;20027;-57
2023/05/16 10:02:01;;;;;;;6.18;1.45;;;12.90;99.90;;;;;;5104362;28;20624;-60
2023/05/16 10:04:27;;;;;;;8.90;1.77;;;13.20;99.90;;;;;;5106415;28;20501;-60
2023/05/16 10:06:56;;;;;;;2.92;2.42;;;13.30;99.90;;;;;;5112141;28;20035;-54
2023/05/16 10:09:21;;;;;;;11.18;2.83;;;13.30;99.90;;;;;;5109772;28;20035;-57
2023/05/16 10:11:48;;;;;;;12.15;1.58;;;13.30;99.90;;;;;;5111319;27;20019;-57
2023/05/16 10:14:17;;;;;;;7.30;1.20;;;13.70;99.90;;;;;;5107435;28;20026;-58
2023/05/16 10:16:45;;;;;;;6.03;1.42;;;14.10;99.90;;;;;;5111884;28;20039;-60
2023/05/16 10:19:11;;;;;;;4.35;1.50;;;14.00;99.90;;;;;;5108085;28;20028;-58
2023/05/16 10:21:38;;;;;;;5.97;1.33;;;14.20;99.90;;;;;;5107248;28;20023;-58
2023/05/16 10:24:10;;;;;;;8.02;1.98;;;14.10;99.90;;;;;;5107032;28;20032;-56
2023/05/16 10:26:36;;;;;;;8.13;1.23;;;13.60;99.90;;;;;;5108058;28;20023;-60
2023/05/16 10:29:02;;;;;;;8.60;1.52;;;13.60;99.90;;;;;;5105555;28;20027;-57
2023/05/16 10:31:29;;;;;;;9.05;1.63;;;14.00;99.90;;;;;;5109249;27;20024;-58
2023/05/16 10:33:56;;;;;;;7.55;1.45;;;14.40;99.90;;;;;;5106241;28;20405;-56
2023/05/16 10:36:22;;;;;;;5.38;1.52;;;14.60;99.90;;;;;;5103201;28;20404;-54
2023/05/16 10:38:50;;;;;;;4.72;1.15;;;14.50;99.90;;;;;;5105629;28;20553;-56
2023/05/16 10:41:15;;;;;;;7.38;1.20;;;14.20;99.90;;;;;;5104488;28;20682;-60
2023/05/16 10:43:45;;;;;;;9.65;2.08;;;14.30;99.90;;;;;;5101490;28;20030;-55
2023/05/16 10:46:11;;;;;;;4.53;1.35;;;14.40;99.90;;;;;;5105696;28;20020;-54
2023/05/16 10:48:38;;;;;;;5.32;1.42;;;14.40;99.90;;;;;;5108736;28;20031;-56
2023/05/16 10:51:22;;;;;;;7.28;1.05;;;14.50;99.90;;;;;;5107895;28;20035;-57
2023/05/16 10:53:52;;;;;;;12.60;1.65;;;14.80;99.90;;;;;;5097830;28;20024;-60
2023/05/16 10:56:25;;;;;;;4.10;1.20;;;14.60;99.90;;;;;;5106359;28;20042;-55
2023/05/16 10:58:53;;;;;;;5.03;1.23;;;14.90;99.90;;;;;;5105297;28;20554;-55
2023/05/16 11:01:23;;;;;;;7.70;1.38;;;14.80;99.90;;;;;;5106343;28;20077;-55
2023/05/16 11:06:27;;;;;;;8.05;1.33;;;14.80;99.90;;;;;;5103943;28;20031;-57
2023/05/16 11:11:47;;;;;;;4.47;1.33;;;14.10;99.90;;;;;;5111184;28;20126;-52
2023/05/16 11:14:23;;;;;;;5.13;0.98;;;13.90;99.90;;;;;;5108094;28;20024;-55
2023/05/16 11:17:02;;;;;;;4.25;1.33;;;13.90;99.90;;;;;;5106504;28;20076;-58
2023/05/16 11:19:32;;;;;;;9.77;1.42;;;14.00;99.90;;;;;;5107982;28;20566;-58
2023/05/16 11:22:07;;;;;;;5.68;1.55;;;14.00;99.90;;;;;;5105913;28;20076;-57
2023/05/16 11:24:34;;;;;;;;;;;14.50;99.90;;;;;;5110925;28;20019;-53
2023/05/16 11:27:00;;;;;;;5.40;1.35;;;14.80;99.90;;;;;;5110809;28;19908;-54
2023/05/16 11:29:28;;;;;;;7.78;1.00;;;14.80;99.90;;;;;;5107365;28;20019;-57
2023/05/16 11:31:53;;;;;;;6.30;1.65;;;14.80;99.90;;;;;;5107253;28;20102;-54
2023/05/16 11:34:19;;;;;;;7.15;1.48;;;14.60;99.90;;;;;;5100401;28;20173;-58
2023/05/16 11:36:45;;;;;;;10.32;1.60;;;14.60;99.90;;;;;;5106128;28;20059;-54
2023/05/16 11:39:11;;;;;;;9.90;1.50;;;14.40;99.90;;;;;;5107112;28;20047;-52
2023/05/16 11:41:37;;;;;;;11.27;1.30;;;14.60;99.90;;;;;;5105048;28;20164;-52
2023/05/16 11:44:04;;;;;;;17.30;1.88;;;14.60;99.90;;;;;;5108122;28;20028;-58
2023/05/16 11:46:30;;;;;;;3.47;1.05;;;14.90;99.90;;;;;;5106030;28;20020;-54
2023/05/16 11:48:57;;;;;;;7.35;1.48;;;15.00;99.90;;;;;;5105745;28;20046;-59
2023/05/16 11:51:22;;;;;;;5.82;1.08;;;15.20;99.90;;;;;;5109293;28;20019;-60
2023/05/16 11:53:52;;;;;;;6.22;1.40;;;15.40;99.90;;;;;;5107579;28;20072;-54
2023/05/16 11:56:18;;;;;;;6.55;1.20;;;15.30;99.90;;;;;;5101132;28;20034;-58
2023/05/16 11:58:44;;;;;;;5.80;1.10;;;15.20;99.90;;;;;;5107183;28;20481;-60
2023/05/16 12:01:10;;;;;;;5.78;1.27;;;14.90;99.90;;;;;;5103567;28;20023;-58
2023/05/16 12:03:37;;;;;;;8.60;1.17;;;14.80;99.90;;;;;;5106257;28;20027;-57
2023/05/16 12:06:03;;;;;;;9.93;1.35;;;14.70;99.90;;;;;;5101031;28;20035;-54
2023/05/16 12:08:29;;;;;;;10.18;2.03;;;14.80;99.90;;;;;;5104389;27;20027;-57
2023/05/16 12:10:55;;;;;;;6.22;1.30;;;15.20;99.90;;;;;;5102593;28;20024;-58
2023/05/16 12:13:23;;;;;;;8.40;1.45;;;15.80;99.90;;;;;;5107785;28;20057;-54
2023/05/16 12:15:51;;;;;;;5.70;1.10;;;16.20;99.90;;;;;;5103587;28;20514;-57
2023/05/16 12:18:17;;;;;;;8.00;1.70;;;16.00;99.90;;;;;;5104955;28;20076;-55
2023/05/16 12:20:43;;;;;;;5.47;0.98;;;15.80;99.90;;;;;;5103393;28;20027;-57
2023/05/16 12:23:13;;;;;;;8.65;1.08;;;15.60;99.90;;;;;;5100353;28;20012;-56
2023/05/16 12:25:45;;;;;;;5.35;0.70;;;15.50;99.90;;;;;;5105254;28;20035;-58
2023/05/16 12:28:12;;;;;;;7.00;0.90;;;15.70;99.90;;;;;;5098373;28;21327;-59
2023/05/16 12:30:41;;;;;;;3.65;0.90;;;15.60;99.90;;;;;;5103156;28;20020;-60
2023/05/16 12:33:12;;;;;;;9.65;0.75;;;16.00;99.90;;;;;;5106029;28;20103;-60
2023/05/16 12:35:41;;;;;;;1.75;0.60;;;16.10;99.00;;;;;;5101069;28;20032;-55
2023/05/16 12:38:18;;;;;;;3.42;0.73;;;16.20;97.60;;;;;;5100264;28;20032;-60
2023/05/16 12:40:44;;;;;;;3.03;0.60;;;16.30;96.40;;;;;;5099844;28;20027;-57
2023/05/16 12:43:20;;;;;;;2.15;0.50;;;16.30;97.30;;;;;;5097912;28;20146;-58
2023/05/16 12:45:57;;;;;;;3.50;0.93;;;16.50;97.70;;;;;;5102655;28;20131;-59